Time;durP1;ratioP1;P1;durP2;ratioP2;P2;SDS_P1;SDS_P2;PMS_P1;PMS_P2;Temp;Humidity;BMP_temperature;BMP_pressure;BME280_temperature;BME280_humidity;BME280_pressure;Samples;Min_cycle;Max_cycle;Signal;HPM_P1;HPM_P2
2022/09/10 00:02:15;;;;;;;6.47;3.22;;;;;;;16.43;100.00;98444.41;4485537;31;20156;-80
2022/09/10 00:04:42;;;;;;;2.95;2.30;;;;;;;16.36;100.00;98441.66;4485729;32;20131;-80
2022/09/10 00:07:10;;;;;;;4.12;2.50;;;;;;;16.29;100.00;98443.38;4494744;31;20562;-80
2022/09/10 00:09:38;;;;;;;4.93;2.70;;;;;;;16.27;100.00;98434.81;4501508;31;20606;-80
2022/09/10 00:12:05;;;;;;;4.20;2.37;;;;;;;16.27;100.00;98435.62;4501264;31;20111;-80
2022/09/10 00:14:32;;;;;;;3.75;2.22;;;;;;;16.26;100.00;98433.16;4501767;31;20131;-80
2022/09/10 00:17:00;;;;;;;4.22;2.60;;;;;;;16.25;100.00;98431.53;4501226;31;20152;-80
2022/09/10 00:19:30;;;;;;;3.15;2.35;;;;;;;16.24;100.00;98433.34;4501338;31;20092;-80
2022/09/10 00:21:57;;;;;;;4.10;2.92;;;;;;;16.26;100.00;98422.59;4501344;31;20099;-80
2022/09/10 00:24:25;;;;;;;5.95;2.58;;;;;;;16.27;100.00;98424.25;4501313;31;20114;-80
2022/09/10 00:26:52;;;;;;;4.47;1.80;;;;;;;16.27;100.00;98421.59;4501029;31;20115;-80
2022/09/10 00:29:19;;;;;;;2.03;1.73;;;;;;;16.27;100.00;98416.31;4501546;31;20200;-80
2022/09/10 00:31:46;;;;;;;2.30;2.10;;;;;;;16.28;100.00;98413.47;4501531;31;20130;-80
2022/09/10 00:34:14;;;;;;;2.08;1.73;;;;;;;16.30;100.00;98416.75;4501450;31;20088;-80
2022/09/10 00:36:42;;;;;;;2.03;1.70;;;;;;;16.25;100.00;98407.75;4501396;31;20497;-81
2022/09/10 00:39:13;;;;;;;4.22;1.70;;;;;;;16.22;100.00;98406.28;4501336;31;20168;-80
2022/09/10 00:41:42;;;;;;;4.15;2.10;;;;;;;16.27;100.00;98408.37;4501307;31;20122;-81
2022/09/10 00:44:40;;;;;;;3.92;1.90;;;;;;;16.26;100.00;98417.28;4501345;31;20118;-80
2022/09/10 00:47:19;;;;;;;5.03;2.12;;;;;;;16.23;100.00;98415.87;4501214;31;20087;-81
2022/09/10 00:49:49;;;;;;;3.62;2.35;;;;;;;16.18;100.00;98410.28;4500038;31;20114;-80
2022/09/10 00:52:16;;;;;;;7.15;2.67;;;;;;;16.21;100.00;98407.28;4501188;31;20115;-81
2022/09/10 00:54:43;;;;;;;3.45;2.45;;;;;;;16.10;100.00;98403.28;4491584;31;20187;-80
2022/09/10 00:57:13;;;;;;;3.05;2.60;;;;;;;16.08;100.00;98405.28;4485258;32;20402;-81
2022/09/10 00:59:46;;;;;;;4.55;2.87;;;;;;;16.00;100.00;98401.91;4484114;32;20131;-81
2022/09/10 01:02:13;;;;;;;5.05;3.25;;;;;;;15.99;100.00;98403.72;4484173;32;20092;-80
2022/09/10 01:04:41;;;;;;;7.75;3.22;;;;;;;16.00;100.00;98407.19;4485359;32;20115;-81
2022/09/10 01:07:12;;;;;;;6.97;2.95;;;;;;;15.94;100.00;98400.78;4493079;31;20112;-80
2022/09/10 01:09:39;;;;;;;6.75;2.67;;;;;;;15.95;100.00;98394.50;4501509;31;20076;-81
2022/09/10 01:12:11;;;;;;;4.80;2.95;;;;;;;15.93;100.00;98399.97;4499964;31;20137;-81
2022/09/10 01:14:57;;;;;;;4.70;2.80;;;;;;;15.93;100.00;98396.53;4500257;31;20104;-81
2022/09/10 01:17:56;;;;;;;6.40;3.20;;;;;;;15.89;100.00;98397.88;4499902;31;20144;-81
2022/09/10 01:21:05;;;;;;;5.45;3.40;;;;;;;15.89;100.00;98387.31;4501222;31;20149;-81
2022/09/10 01:23:51;;;;;;;6.70;3.40;;;;;;;15.81;100.00;98379.47;4494847;31;20218;-81
2022/09/10 01:26:21;;;;;;;8.52;3.83;;;;;;;15.73;100.00;98373.25;4501022;31;20130;-81
2022/09/10 01:29:07;;;;;;;5.90;3.33;;;;;;;15.68;100.00;98367.66;4500683;31;20080;-81
2022/09/10 01:31:46;;;;;;;6.45;3.65;;;;;;;15.65;100.00;98357.47;4501118;31;20088;-81
2022/09/10 01:34:25;;;;;;;7.57;4.18;;;;;;;15.56;100.00;98354.09;4500858;31;20200;-81
2022/09/10 01:36:54;;;;;;;9.90;4.68;;;;;;;15.50;100.00;98346.87;4500747;31;20084;-81
2022/09/10 01:39:22;;;;;;;14.57;4.45;;;;;;;15.50;100.00;98338.13;4500738;31;20096;-81
2022/09/10 01:41:53;;;;;;;7.30;4.12;;;;;;;15.49;100.00;98344.41;4499573;31;20156;-81
2022/09/10 01:44:46;;;;;;;7.07;3.80;;;;;;;15.46;100.00;98342.13;4501115;31;20425;-81
2022/09/10 01:47:52;;;;;;;7.07;3.62;;;;;;;15.44;100.00;98332.59;4500545;31;20152;-81
2022/09/10 01:50:28;;;;;;;6.03;2.85;;;;;;;15.42;100.00;98345.13;4435956;32;20118;-81
2022/09/10 01:53:21;;;;;;;9.40;3.60;;;;;;;15.49;100.00;98347.87;4435671;32;20117;-81
2022/09/10 01:56:02;;;;;;;6.87;3.28;;;;;;;15.42;100.00;98350.41;4420875;32;20506;-81
2022/09/10 01:58:36;;;;;;;10.38;3.45;;;;;;;15.43;100.00;98336.22;4407889;32;20178;-82
2022/09/10 02:01:09;;;;;;;7.73;3.50;;;;;;;15.46;100.00;98318.38;4420556;32;20098;-82
2022/09/10 02:03:38;;;;;;;4.78;3.35;;;;;;;15.38;100.00;98309.56;4407482;32;20086;-82
2022/09/10 02:06:08;;;;;;;7.62;4.05;;;;;;;15.36;100.00;98308.91;4410186;32;20136;-80
2022/09/10 02:08:38;;;;;;;5.30;3.12;;;;;;;15.38;100.00;98312.19;4422764;32;20133;-81
2022/09/10 02:11:10;;;;;;;6.65;3.62;;;;;;;15.35;100.00;98323.09;4422910;32;20204;-82
2022/09/10 02:13:38;;;;;;;6.93;3.50;;;;;;;15.26;100.00;98318.88;4422903;32;20574;-81
2022/09/10 02:16:09;;;;;;;7.80;4.05;;;;;;;15.23;100.00;98332.44;4422940;32;20128;-81
2022/09/10 02:18:37;;;;;;;8.88;3.45;;;;;;;15.14;100.00;98323.78;4422571;32;20093;-81
2022/09/10 02:21:05;;;;;;;8.90;3.72;;;;;;;15.11;100.00;98331.22;4435276;32;20195;-81
2022/09/10 02:23:41;;;;;;;3.47;2.37;;;;;;;15.05;100.00;98330.94;4423218;32;20399;-81
2022/09/10 02:26:13;;;;;;;7.35;3.12;;;;;;;14.98;100.00;98329.19;4429405;31;20596;-81
2022/09/10 02:28:48;;;;;;;6.65;2.30;;;;;;;14.88;100.00;98332.03;4501792;31;20100;-81
2022/09/10 02:31:17;;;;;;;3.83;2.47;;;;;;;14.79;100.00;98320.75;4501177;31;20095;-81
2022/09/10 02:33:44;;;;;;;3.70;2.17;;;;;;;14.72;100.00;98311.88;4501928;31;20118;-81
2022/09/10 02:36:12;;;;;;;7.05;2.50;;;;;;;14.69;100.00;98310.41;4502081;31;20375;-81
2022/09/10 02:38:39;;;;;;;5.15;2.50;;;;;;;14.66;100.00;98296.75;4501943;31;20103;-81
2022/09/10 02:41:08;;;;;;;4.20;2.25;;;;;;;14.62;100.00;98298.09;4502080;31;20088;-81
2022/09/10 02:43:36;;;;;;;2.75;1.80;;;;;;;14.55;100.00;98292.69;4502121;31;20088;-81
2022/09/10 02:46:06;;;;;;;3.05;2.22;;;;;;;14.49;100.00;98296.03;4502356;31;20099;-81
2022/09/10 02:48:34;;;;;;;4.82;1.65;;;;;;;14.47;100.00;98301.44;4502322;31;20084;-81
2022/09/10 02:51:02;;;;;;;5.28;1.60;;;;;;;14.43;100.00;98294.06;4502196;31;20138;-80
2022/09/10 02:53:30;;;;;;;2.15;1.48;;;;;;;14.42;100.00;98295.06;4501667;31;20402;-80
2022/09/10 02:55:59;;;;;;;2.80;1.73;;;;;;;14.41;100.00;98304.75;4486322;32;20123;-80
2022/09/10 02:58:30;;;;;;;5.95;1.80;;;;;;;14.32;100.00;98296.09;4486122;32;20100;-81
2022/09/10 03:01:13;;;;;;;1.60;1.25;;;;;;;14.32;100.00;98301.37;4486479;32;20107;-81
2022/09/10 03:03:41;;;;;;;5.72;1.55;;;;;;;14.33;100.00;98302.19;4486316;32;20080;-81
2022/09/10 03:06:09;;;;;;;1.67;1.42;;;;;;;14.34;100.00;98307.28;4488803;31;20104;-80
2022/09/10 03:08:36;;;;;;;6.87;1.33;;;;;;;14.35;100.00;98308.94;4502067;31;20118;-80
2022/09/10 03:11:03;;;;;;;2.28;1.17;;;;;;;14.38;100.00;98302.47;4501832;31;20536;-81
2022/09/10 03:13:33;;;;;;;6.78;1.60;;;;;;;14.39;100.00;98306.75;4501641;31;20483;-81
2022/09/10 03:16:03;;;;;;;3.22;1.02;;;;;;;14.35;100.00;98311.56;4501909;31;20118;-81
2022/09/10 03:18:32;;;;;;;4.93;1.20;;;;;;;14.35;100.00;98316.84;4502053;31;20092;-81
2022/09/10 03:21:12;;;;;;;3.12;1.25;;;;;;;14.35;100.00;98311.56;4501697;31;20406;-81
2022/09/10 03:23:41;;;;;;;3.03;1.08;;;;;;;14.36;100.00;98305.28;4501856;31;20118;-81
2022/09/10 03:26:12;;;;;;;5.30;1.08;;;;;;;14.40;100.00;98311.06;4501796;31;20102;-81
2022/09/10 03:28:42;;;;;;;1.12;0.70;;;;;;;14.38;100.00;98313.03;4501759;31;20642;-81
2022/09/10 03:31:10;;;;;;;2.72;1.00;;;;;;;14.37;100.00;98317.47;4501909;31;20112;-81
2022/09/10 03:33:39;;;;;;;1.70;0.85;;;;;;;14.36;100.00;98304.47;4501825;31;20100;-81
2022/09/10 03:36:08;;;;;;;1.23;0.98;;;;;;;14.36;100.00;98307.91;4501076;31;20381;-81
2022/09/10 03:38:35;;;;;;;1.77;0.73;;;;;;;14.32;100.00;98296.09;4502043;31;20418;-82
2022/09/10 03:41:03;;;;;;;1.20;0.98;;;;;;;14.25;100.00;98305.69;4501385;31;20108;-81
2022/09/10 03:43:31;;;;;;;1.08;0.75;;;;;;;14.24;100.00;98301.41;4501970;31;20083;-81
2022/09/10 03:45:58;;;;;;;1.42;0.80;;;;;;;14.17;100.00;98295.16;4501790;31;20127;-81
2022/09/10 03:48:25;;;;;;;1.37;0.98;;;;;;;14.19;100.00;98306.38;4501823;31;20118;-81
2022/09/10 03:50:53;;;;;;;2.55;0.90;;;;;;;14.19;100.00;98311.66;4501454;31;20115;-81
2022/09/10 03:53:21;;;;;;;1.67;1.00;;;;;;;14.17;100.00;98308.34;4501534;31;20151;-81
2022/09/10 03:55:49;;;;;;;1.25;0.90;;;;;;;14.21;100.00;98309.66;4486117;31;20108;-81
2022/09/10 03:58:17;;;;;;;1.00;0.70;;;;;;;14.19;100.00;98304.56;4485830;32;20084;-81
2022/09/10 04:00:45;;;;;;;0.95;0.80;;;;;;;14.19;100.00;98298.47;4485428;32;20088;-81
2022/09/10 04:03:13;;;;;;;1.73;0.95;;;;;;;14.21;100.00;98304.38;4485737;32;20116;-81
2022/09/10 04:05:44;;;;;;;1.77;1.00;;;;;;;14.24;100.00;98309.31;4485512;32;20115;-81
2022/09/10 04:08:12;;;;;;;6.97;1.98;;;;;;;14.28;100.00;98313.25;4485973;31;20104;-81
2022/09/10 04:10:41;;;;;;;1.20;0.85;;;;;;;14.31;100.00;98298.91;4485389;31;20158;-81
2022/09/10 04:13:10;;;;;;;0.93;0.82;;;;;;;14.26;100.00;98309.97;4485674;31;20088;-81
2022/09/10 04:15:38;;;;;;;1.73;0.90;;;;;;;14.28;100.00;98309.81;4485832;32;20104;-81
2022/09/10 04:18:06;;;;;;;0.70;0.60;;;;;;;14.24;100.00;98314.56;4485693;31;20092;-81
2022/09/10 04:20:33;;;;;;;1.98;0.98;;;;;;;14.21;100.00;98314.91;4485720;31;20164;-81
2022/09/10 04:23:02;;;;;;;1.40;0.98;;;;;;;14.18;100.00;98317.91;4485809;32;20096;-81
2022/09/10 04:25:31;;;;;;;0.60;0.60;;;;;;;14.22;100.00;98324.47;4485508;31;20452;-81
2022/09/10 04:27:58;;;;;;;1.35;0.90;;;;;;;14.19;100.00;98328.25;4485629;32;20160;-81
2022/09/10 04:30:25;;;;;;;4.75;1.00;;;;;;;14.16;100.00;98333.88;4485636;32;20100;-81
2022/09/10 04:32:53;;;;;;;1.55;0.80;;;;;;;14.13;100.00;98333.41;4485667;32;20092;-81
2022/09/10 04:35:20;;;;;;;3.00;0.80;;;;;;;14.10;100.00;98334.56;4485574;31;20155;-81
2022/09/10 04:37:47;;;;;;;1.23;0.90;;;;;;;14.11;100.00;98324.84;4485539;31;20123;-81
2022/09/10 04:40:15;;;;;;;2.53;1.08;;;;;;;14.05;100.00;98313.19;4485410;32;20566;-81
2022/09/10 04:42:42;;;;;;;2.67;1.12;;;;;;;14.05;100.00;98318.47;4485674;31;20096;-81
2022/09/10 04:45:09;;;;;;;1.37;0.98;;;;;;;14.09;100.00;98316.28;4485260;32;20172;-81
2022/09/10 04:47:37;;;;;;;1.23;1.00;;;;;;;14.05;100.00;98329.00;4484392;31;20105;-81
2022/09/10 04:50:05;;;;;;;1.35;0.90;;;;;;;14.05;100.00;98320.25;4485603;31;20441;-81
2022/09/10 04:52:33;;;;;;;1.00;0.90;;;;;;;14.07;100.00;98313.81;4485680;31;20092;-80
2022/09/10 04:55:00;;;;;;;2.65;1.00;;;;;;;14.08;100.00;98314.63;4495639;31;20100;-81
2022/09/10 04:57:27;;;;;;;2.17;0.90;;;;;;;14.07;100.00;98305.94;4501386;31;20160;-81
2022/09/10 04:59:55;;;;;;;1.25;0.90;;;;;;;14.12;100.00;98308.03;4501002;31;20480;-81
2022/09/10 05:02:23;;;;;;;1.67;0.95;;;;;;;14.15;100.00;98315.59;4501338;31;20091;-81
2022/09/10 05:04:50;;;;;;;1.98;1.15;;;;;;;14.17;100.00;98308.34;4501189;31;20458;-81
2022/09/10 05:07:17;;;;;;;3.28;1.23;;;;;;;14.22;100.00;98321.84;4490610;31;20092;-81
2022/09/10 05:09:45;;;;;;;3.42;0.75;;;;;;;14.28;100.00;98307.16;4485511;31;20122;-81
2022/09/10 05:12:18;;;;;;;1.75;0.93;;;;;;;14.35;100.00;98300.19;4485228;31;20119;-81
2022/09/10 05:14:45;;;;;;;1.87;1.10;;;;;;;14.44;100.00;98303.59;4485341;32;20452;-81
2022/09/10 05:17:12;;;;;;;1.23;0.90;;;;;;;14.53;100.00;98310.47;4485144;31;20163;-80
2022/09/10 05:19:40;;;;;;;2.00;0.90;;;;;;;14.57;100.00;98305.69;4485520;31;20171;-80
2022/09/10 05:22:08;;;;;;;1.40;0.85;;;;;;;14.64;100.00;98310.13;4485090;31;20092;-80
2022/09/10 05:24:35;;;;;;;1.60;0.90;;;;;;;14.79;100.00;98319.91;4485088;31;20510;-80
2022/09/10 05:27:03;;;;;;;1.20;0.82;;;;;;;14.81;100.00;98315.28;4485148;32;20100;-81
2022/09/10 05:29:30;;;;;;;1.85;0.90;;;;;;;14.80;100.00;98322.38;4484958;31;20127;-80
2022/09/10 05:31:57;;;;;;;1.27;0.88;;;;;;;14.87;100.00;98318.03;4485213;31;20111;-80
2022/09/10 05:34:25;;;;;;;2.15;0.90;;;;;;;14.84;100.00;98321.03;4485262;31;20096;-81
2022/09/10 05:36:53;;;;;;;1.00;0.88;;;;;;;14.89;100.00;98329.22;4485153;31;20096;-81
2022/09/10 05:39:20;;;;;;;2.87;1.35;;;;;;;14.98;100.00;98329.97;4485371;31;20474;-81
2022/09/10 05:41:47;;;;;;;1.48;0.90;;;;;;;14.97;100.00;98341.53;4484949;31;20088;-81
2022/09/10 05:44:16;;;;;;;1.55;0.90;;;;;;;14.98;100.00;98332.63;4485271;31;20119;-80
2022/09/10 05:46:44;;;;;;;5.87;1.20;;;;;;;14.98;100.00;98340.53;4485058;31;20849;-81
2022/09/10 05:49:11;;;;;;;1.83;1.25;;;;;;;14.98;100.00;98332.63;4484997;31;20100;-80
2022/09/10 05:51:40;;;;;;;4.68;1.00;;;;;;;14.97;100.00;98330.97;4485264;31;20456;-80
2022/09/10 05:54:07;;;;;;;1.67;1.12;;;;;;;14.99;100.00;98325.53;4489236;31;20154;-80
2022/09/10 05:56:34;;;;;;;1.83;1.10;;;;;;;15.00;100.00;98327.16;4500891;31;20108;-80
2022/09/10 05:59:03;;;;;;;1.10;0.80;;;;;;;15.01;100.00;98332.28;4500010;31;20088;-81
2022/09/10 06:01:30;;;;;;;4.40;1.48;;;;;;;15.04;100.00;98337.19;4500990;31;20423;-81
2022/09/10 06:03:58;;;;;;;2.03;0.90;;;;;;;15.10;100.00;98337.50;4500894;31;20484;-80
2022/09/10 06:06:27;;;;;;;1.40;1.05;;;;;;;15.11;100.00;98342.59;4490789;31;171435;-81
2022/09/10 06:08:54;;;;;;;4.30;0.80;;;;;;;15.05;100.00;98338.84;4485220;31;20155;-81
2022/09/10 06:11:22;;;;;;;2.83;0.90;;;;;;;15.07;100.00;98334.19;4484791;31;20716;-81
2022/09/10 06:13:49;;;;;;;1.20;0.93;;;;;;;15.12;100.00;98335.50;4484802;31;20096;-80
2022/09/10 06:16:17;;;;;;;1.12;0.85;;;;;;;15.11;100.00;98331.22;4485023;31;20136;-80
2022/09/10 06:18:44;;;;;;;8.27;0.80;;;;;;;15.14;100.00;98336.12;4484715;32;20141;-80
2022/09/10 06:21:14;;;;;;;1.83;1.02;;;;;;;15.19;100.00;98339.06;4484897;31;20155;-80
2022/09/10 06:23:42;;;;;;;3.30;1.30;;;;;;;15.22;100.00;98336.88;4484599;31;20510;-80
2022/09/10 06:26:15;;;;;;;0.88;0.65;;;;;;;15.18;100.00;98327.69;4484425;31;20092;-81
2022/09/10 06:28:43;;;;;;;0.70;0.70;;;;;;;15.22;100.00;98333.44;4484582;31;20148;-81
2022/09/10 06:31:15;;;;;;;3.45;1.00;;;;;;;15.40;100.00;98336.56;4484351;31;20144;-80
2022/09/10 06:33:43;;;;;;;0.73;0.60;;;;;;;15.41;100.00;98343.50;4484218;32;20417;-81
2022/09/10 06:36:12;;;;;;;1.92;0.82;;;;;;;15.39;100.00;98334.13;4484307;31;20092;-81
2022/09/10 06:38:39;;;;;;;1.98;0.88;;;;;;;15.42;100.00;98344.31;4484197;31;20096;-81
2022/09/10 06:41:11;;;;;;;1.20;0.88;;;;;;;15.42;100.00;98336.41;4484435;31;20097;-81
2022/09/10 06:43:40;;;;;;;1.67;0.98;;;;;;;15.39;100.00;98337.56;4484115;31;20080;-80
2022/09/10 06:46:14;;;;;;;4.20;1.12;;;;;;;15.35;100.00;98341.59;4484493;31;20174;-80
2022/09/10 06:49:02;;;;;;;0.77;0.70;;;;;;;15.28;100.00;98343.28;4484254;31;20084;-80
2022/09/10 06:51:31;;;;;;;0.70;0.70;;;;;;;15.26;100.00;98346.09;4484209;31;20101;-80
2022/09/10 06:54:01;;;;;;;2.00;1.05;;;;;;;15.20;100.00;98356.53;4487228;31;20126;-80
2022/09/10 06:56:29;;;;;;;1.83;1.10;;;;;;;15.11;100.00;98352.31;4499929;31;20573;-80
2022/09/10 06:58:57;;;;;;;2.65;1.25;;;;;;;15.01;100.00;98353.38;4499737;31;20514;-80
2022/09/10 07:01:29;;;;;;;1.62;1.08;;;;;;;14.97;100.00;98352.06;4500020;31;20085;-81
2022/09/10 07:03:58;;;;;;;1.87;1.20;;;;;;;14.94;100.00;98357.69;4499651;31;20119;-81
2022/09/10 07:06:26;;;;;;;0.88;0.80;;;;;;;14.93;100.00;98363.16;4495199;31;20108;-80
2022/09/10 07:08:55;;;;;;;1.42;0.80;;;;;;;14.98;100.00;98366.09;4483938;31;20088;-81
2022/09/10 07:11:24;;;;;;;1.95;1.10;;;;;;;14.96;100.00;98366.28;4485537;31;20115;-81
2022/09/10 07:13:53;;;;;;;6.32;0.90;;;;;;;14.98;100.00;98372.19;4486089;32;20116;-81
2022/09/10 07:16:22;;;;;;;1.30;1.10;;;;;;;15.03;100.00;98380.41;4486292;31;20118;-81
2022/09/10 07:18:51;;;;;;;2.83;1.12;;;;;;;15.05;100.00;98375.78;4485936;31;20465;-81
2022/09/10 07:21:21;;;;;;;1.92;1.10;;;;;;;15.11;100.00;98381.34;4486247;31;20453;-81
2022/09/10 07:23:54;;;;;;;2.03;1.20;;;;;;;15.10;100.00;98380.53;4485953;31;20084;-81
2022/09/10 07:26:21;;;;;;;2.22;1.40;;;;;;;15.12;100.00;98380.34;4486136;31;20145;-81
2022/09/10 07:28:48;;;;;;;3.05;1.33;;;;;;;15.17;100.00;98378.84;4485843;31;20096;-81
2022/09/10 07:31:18;;;;;;;2.72;1.35;;;;;;;15.29;100.00;98381.03;4485954;31;20566;-81
2022/09/10 07:33:47;;;;;;;2.45;1.23;;;;;;;15.34;100.00;98384.81;4486024;32;20092;-80
2022/09/10 07:36:16;;;;;;;1.30;1.17;;;;;;;15.36;100.00;98393.34;4486267;31;20104;-80
2022/09/10 07:38:44;;;;;;;1.55;1.40;;;;;;;15.43;100.00;98394.28;4486063;31;20084;-80
2022/09/10 07:41:13;;;;;;;2.72;1.58;;;;;;;15.52;100.00;98396.84;4486193;31;20084;-80
2022/09/10 07:43:41;;;;;;;1.60;1.27;;;;;;;15.64;100.00;98405.16;4486006;31;20164;-80
2022/09/10 07:46:19;;;;;;;1.70;1.20;;;;;;;15.77;100.00;98403.59;4485916;31;20123;-80
2022/09/10 07:48:52;;;;;;;1.90;1.25;;;;;;;15.94;100.00;98404.28;4486097;31;20080;-79
2022/09/10 07:51:19;;;;;;;1.20;1.10;;;;;;;16.10;100.00;98411.19;4485815;31;20716;-79
2022/09/10 07:53:52;;;;;;;1.95;1.40;;;;;;;16.22;100.00;98408.13;4487882;31;20115;-79
2022/09/10 07:56:21;;;;;;;1.40;1.10;;;;;;;16.37;100.00;98408.94;4501686;31;20114;-79
2022/09/10 07:58:50;;;;;;;1.52;1.05;;;;;;;16.49;100.00;98410.09;4501565;31;20091;-79
2022/09/10 08:01:18;;;;;;;2.00;1.27;;;;;;;16.63;100.00;98415.56;4501938;31;20497;-80
2022/09/10 08:03:46;;;;;;;1.12;0.90;;;;;;;16.85;100.00;98405.81;4501692;31;20378;-80
2022/09/10 08:06:16;;;;;;;2.45;1.20;;;;;;;16.99;100.00;98407.66;4498289;31;20153;-79
2022/09/10 08:08:43;;;;;;;2.08;0.95;;;;;;;17.09;100.00;98409.19;4485889;32;20091;-79
2022/09/10 08:11:15;;;;;;;1.58;0.90;;;;;;;17.00;100.00;98411.94;4484730;32;20579;-79
2022/09/10 08:13:44;;;;;;;1.25;0.90;;;;;;;17.03;100.00;98408.94;4485514;31;20609;-79
2022/09/10 08:16:19;;;;;;;0.82;0.80;;;;;;;17.08;100.00;98413.66;4485873;31;20119;-79
2022/09/10 08:18:47;;;;;;;0.70;0.60;;;;;;;17.20;100.00;98412.16;4485840;31;20092;-79
2022/09/10 08:21:16;;;;;;;0.70;0.70;;;;;;;17.40;100.00;98410.72;4485726;31;20762;-79
2022/09/10 08:23:55;;;;;;;1.67;0.85;;;;;;;17.58;100.00;98420.81;4485845;31;20447;-79
2022/09/10 08:26:24;;;;;;;1.10;1.00;;;;;;;17.69;100.00;98415.03;4485706;31;20129;-79
2022/09/10 08:28:56;;;;;;;1.02;0.90;;;;;;;17.80;100.00;98416.31;4485427;31;20167;-79
2022/09/10 08:31:25;;;;;;;1.75;0.80;;;;;;;17.92;100.00;98420.12;4485853;31;20350;-80
2022/09/10 08:33:54;;;;;;;2.10;0.70;;;;;;;17.89;100.00;98416.00;4484338;32;20100;-79
2022/09/10 08:36:23;;;;;;;1.23;0.80;;;;;;;17.91;100.00;98424.59;4485701;31;20112;-80
2022/09/10 08:38:50;;;;;;;6.87;2.17;;;;;;;17.88;100.00;98424.97;4485581;31;20092;-80
2022/09/10 08:41:30;;;;;;;4.75;0.93;;;;;;;17.77;100.00;98433.41;4485679;31;20100;-80
2022/09/10 08:44:03;;;;;;;1.27;0.77;;;;;;;17.76;100.00;98426.50;4485638;32;20115;-80
2022/09/10 08:46:42;;;;;;;1.20;0.90;;;;;;;17.72;98.27;98419.94;4485676;31;20115;-79
2022/09/10 08:49:38;;;;;;;1.85;0.60;;;;;;;17.80;100.00;98427.75;4485343;31;20214;-80
2022/09/10 08:52:32;;;;;;;1.15;0.70;;;;;;;17.78;99.63;98424.47;4479691;32;20092;-80
2022/09/10 08:55:15;;;;;;;0.93;0.40;;;;;;;17.88;99.83;98424.97;4495348;31;20123;-80
2022/09/10 08:57:49;;;;;;;1.40;0.67;;;;;;;17.88;97.32;98427.62;4501429;31;20174;-80
2022/09/10 09:00:20;;;;;;;2.47;0.70;;;;;;;17.98;96.52;98439.72;4501344;31;20088;-80
2022/09/10 09:03:02;;;;;;;0.85;0.50;;;;;;;18.14;93.38;98447.41;4500145;31;20429;-80
2022/09/10 09:05:57;;;;;;;1.17;0.52;;;;;;;18.24;95.14;98445.22;4500157;31;20100;-79
2022/09/10 09:08:28;;;;;;;1.40;0.47;;;;;;;18.11;94.01;98453.09;4484020;32;20446;-79
2022/09/10 09:11:13;;;;;;;5.35;0.50;;;;;;;18.18;94.31;98448.66;4485644;31;20084;-80
2022/09/10 09:13:40;;;;;;;0.88;0.50;;;;;;;18.18;94.71;98448.66;4485155;32;20122;-80
2022/09/10 09:16:38;;;;;;;0.50;0.40;;;;;;;18.26;92.50;98447.69;4485203;32;20115;-80
2022/09/10 09:19:36;;;;;;;4.65;0.50;;;;;;;18.36;92.79;98455.28;4485615;31;20100;-79
2022/09/10 09:22:18;;;;;;;0.55;0.40;;;;;;;18.63;90.60;98443.78;4485274;32;20076;-79
2022/09/10 09:25:12;;;;;;;0.62;0.40;;;;;;;18.91;88.44;98450.88;4485320;31;20096;-80
2022/09/10 09:27:43;;;;;;;0.90;0.50;;;;;;;19.20;88.42;98454.22;4496928;31;20561;-80
2022/09/10 09:30:22;;;;;;;2.90;0.50;;;;;;;19.23;86.59;98445.87;4484082;32;20167;-80
2022/09/10 09:32:56;;;;;;;0.30;0.30;;;;;;;19.62;85.64;98446.94;4483179;32;20130;-80
2022/09/10 09:35:33;;;;;;;1.70;0.40;;;;;;;19.69;80.81;98444.28;4483987;32;20111;-80
2022/09/10 09:38:07;;;;;;;0.22;0.20;;;;;;;19.78;80.93;98437.75;4485299;31;20123;-80
2022/09/10 09:41:05;;;;;;;0.25;0.20;;;;;;;19.74;77.26;98441.00;4485194;31;20092;-80
2022/09/10 09:43:41;;;;;;;1.33;0.50;;;;;;;19.80;78.52;98440.22;4420723;32;20106;-80
2022/09/10 09:46:17;;;;;;;0.30;0.30;;;;;;;19.72;78.51;98443.06;4420426;32;20109;-80
2022/09/10 09:48:46;;;;;;;0.43;0.32;;;;;;;19.89;78.42;98436.31;4420785;32;20158;-80
2022/09/10 09:51:19;;;;;;;0.52;0.40;;;;;;;20.12;80.57;98430.59;4420463;32;20128;-79
2022/09/10 09:53:48;;;;;;;1.37;0.50;;;;;;;20.09;79.23;98427.50;4422300;32;20174;-80
2022/09/10 09:56:42;;;;;;;0.40;0.40;;;;;;;20.13;78.84;98423.44;4435295;32;20113;-80
2022/09/10 09:59:33;;;;;;;1.37;0.45;;;;;;;20.35;79.15;98418.69;4435595;32;20125;-80
2022/09/10 10:02:09;;;;;;;0.70;0.40;;;;;;;20.44;74.97;98416.59;4435594;32;20419;-80
2022/09/10 10:04:38;;;;;;;1.80;0.40;;;;;;;20.78;77.16;98414.66;4435761;32;20081;-80
2022/09/10 10:07:09;;;;;;;0.60;0.50;;;;;;;21.05;78.50;98410.81;4435484;32;20155;-80
2022/09/10 10:09:41;;;;;;;0.82;0.40;;;;;;;21.09;71.85;98416.56;4422980;32;20510;-80
2022/09/10 10:12:19;;;;;;;0.20;0.20;;;;;;;20.95;72.95;98407.81;4422825;32;20153;-80
2022/09/10 10:14:46;;;;;;;2.58;0.88;;;;;;;21.03;72.98;98404.91;4435498;32;20129;-80
2022/09/10 10:17:33;;;;;;;0.35;0.35;;;;;;;21.03;72.55;98410.22;4435234;32;20577;-80
2022/09/10 10:20:37;;;;;;;0.40;0.40;;;;;;;21.04;72.32;98401.19;4449693;31;20508;-80
2022/09/10 10:23:28;;;;;;;0.82;0.47;;;;;;;21.22;74.09;98402.31;4478910;31;20116;-80
2022/09/10 10:25:57;;;;;;;3.10;0.45;;;;;;;21.34;72.30;98397.94;4500003;31;20107;-80
2022/09/10 10:28:26;;;;;;;1.20;0.40;;;;;;;21.18;70.61;98395.78;4499985;31;20100;-80
2022/09/10 10:30:55;;;;;;;0.50;0.50;;;;;;;21.13;68.13;98398.28;4500222;31;20092;-80
2022/09/10 10:33:28;;;;;;;0.20;0.20;;;;;;;20.96;66.51;98403.31;4498934;31;20156;-81
2022/09/10 10:36:16;;;;;;;1.25;0.60;;;;;;;21.05;66.42;98402.03;4500035;31;20084;-80
2022/09/10 10:39:01;;;;;;;0.37;0.35;;;;;;;21.14;67.38;98394.59;4500147;31;20084;-80
2022/09/10 10:41:28;;;;;;;0.60;0.40;;;;;;;21.16;65.03;98397.84;4498662;31;20096;-80
2022/09/10 10:44:22;;;;;;;0.57;0.30;;;;;;;21.30;61.89;98406.56;4500022;31;20092;-80
2022/09/10 10:47:10;;;;;;;0.28;0.28;;;;;;;21.33;61.58;98396.28;4500733;31;20110;-80
2022/09/10 10:49:56;;;;;;;0.57;0.22;;;;;;;21.49;63.62;98402.16;4502144;31;20473;-80
2022/09/10 10:52:58;;;;;;;0.70;0.30;;;;;;;21.48;63.81;98405.84;4501970;31;20409;-80
2022/09/10 10:55:26;;;;;;;1.80;0.30;;;;;;;21.58;61.79;98396.34;4488903;31;20096;-80
2022/09/10 10:58:23;;;;;;;0.73;0.40;;;;;;;21.78;64.52;98406.03;4484628;32;20093;-80
2022/09/10 11:01:10;;;;;;;0.37;0.30;;;;;;;21.80;65.71;98410.13;4484546;32;20158;-80
2022/09/10 11:04:00;;;;;;;0.50;0.40;;;;;;;21.90;64.54;98404.28;4486236;32;20118;-80
2022/09/10 11:06:34;;;;;;;1.75;0.43;;;;;;;21.90;65.49;98395.47;4490956;31;20528;-80
2022/09/10 11:09:10;;;;;;;0.77;0.40;;;;;;;22.13;61.99;98409.00;4501988;31;20141;-80
2022/09/10 11:11:52;;;;;;;0.80;0.30;;;;;;;21.92;60.66;98406.72;4500683;31;20539;-80
2022/09/10 11:14:22;;;;;;;0.50;0.40;;;;;;;21.65;65.50;98401.63;4500788;31;20116;-80
2022/09/10 11:16:53;;;;;;;0.85;0.30;;;;;;;21.63;62.08;98403.69;4500551;31;20181;-80
2022/09/10 11:20:09;;;;;;;1.33;0.40;;;;;;;21.98;61.90;98409.34;4500732;31;20114;-80
2022/09/10 11:23:13;;;;;;;2.70;0.35;;;;;;;22.48;58.98;98405.78;4501778;31;20643;-80
2022/09/10 11:25:53;;;;;;;1.50;0.43;;;;;;;22.18;59.16;98411.00;4500647;31;20536;-80
2022/09/10 11:28:28;;;;;;;0.40;0.40;;;;;;;21.90;59.33;98406.94;4500270;31;20177;-80
2022/09/10 11:31:04;;;;;;;2.97;0.47;;;;;;;21.71;61.12;98408.75;4500496;31;20146;-81
2022/09/10 11:33:38;;;;;;;0.90;0.50;;;;;;;22.00;61.73;98414.47;4500421;31;20497;-80
2022/09/10 11:36:09;;;;;;;;;;;;;;;22.07;59.33;98414.38;4502251;31;20137;-80
2022/09/10 11:38:50;;;;;;;0.40;0.30;;;;;;;21.62;60.98;98402.88;4500561;31;19995;-80
2022/09/10 11:41:27;;;;;;;0.40;0.40;;;;;;;21.45;64.41;98407.06;4501774;31;20470;-80
2022/09/10 11:44:06;;;;;;;0.62;0.50;;;;;;;21.26;61.06;98409.66;4501801;31;20379;-80
2022/09/10 11:46:44;;;;;;;2.22;0.40;;;;;;;21.24;60.75;98403.75;4501661;31;20124;-80
2022/09/10 11:49:20;;;;;;;0.77;0.55;;;;;;;21.62;59.22;98389.56;4500552;31;20457;-80
2022/09/10 11:51:48;;;;;;;1.75;0.40;;;;;;;21.93;58.90;98395.84;4500341;31;20115;-80
2022/09/10 11:54:18;;;;;;;2.03;0.43;;;;;;;21.81;60.87;98394.91;4496515;31;20120;-80